Time,TemperatureF,DewpointF,PressureIn,WindDirection,WindDirectionDegrees,WindSpeedMPH,WindSpeedGustMPH,Humidity,HourlyPrecipIn,Conditions,Clouds,dailyrainin,SolarRadiationWatts/m^2,SoftwareType,DateUTC
2013-03-14 00:02:00,52.0,25.0,-100.00,WNW,285,8.0,16.0,34,0.00,,,0.00,7.000000,,2013-03-14 06:02:00,
2013-03-14 00:12:00,52.0,25.0,-100.00,WNW,285,8.0,16.0,34,0.00,,,0.00,7.000000,,2013-03-14 06:12:00,
2013-03-14 00:22:00,52.0,25.0,-100.00,WNW,285,8.0,16.0,34,0.00,,,0.00,7.000000,,2013-03-14 06:22:00,
2013-03-14 00:32:00,52.0,25.0,-100.00,WNW,285,8.0,16.0,34,0.00,,,0.00,7.000000,,2013-03-14 06:32:00,
2013-03-14 01:02:00,52.0,25.0,-100.00,WNW,285,8.0,16.0,34,0.00,,,0.00,9.000000,,2013-03-14 07:02:00,
2013-03-14 01:12:00,52.0,25.0,-100.00,WNW,285,8.0,16.0,34,0.00,,,0.00,9.000000,,2013-03-14 07:12:00,
2013-03-14 01:22:00,52.0,25.0,-100.00,WNW,285,8.0,16.0,34,0.00,,,0.00,9.000000,,2013-03-14 07:22:00,
2013-03-14 01:32:00,52.0,25.0,-100.00,WNW,285,8.0,16.0,34,0.00,,,0.00,9.000000,,2013-03-14 07:32:00,
2013-03-14 02:02:00,52.0,24.0,-100.00,SE,132,6.0,17.0,33,0.00,,,0.00,7.000000,,2013-03-14 08:02:00,
2013-03-14 02:12:00,52.0,24.0,-100.00,SE,132,6.0,17.0,33,0.00,,,0.00,7.000000,,2013-03-14 08:12:00,
2013-03-14 02:22:00,52.0,24.0,-100.00,SE,132,6.0,17.0,33,0.00,,,0.00,7.000000,,2013-03-14 08:22:00,
2013-03-14 02:32:00,52.0,24.0,-100.00,SE,132,6.0,17.0,33,0.00,,,0.00,7.000000,,2013-03-14 08:32:00,
2013-03-14 02:52:00,50.0,25.0,-100.00,NE,34,2.0,15.0,37,0.00,,,0.00,11.000000,,2013-03-14 08:52:00,
2013-03-14 03:01:00,50.0,25.0,-100.00,NE,34,2.0,15.0,37,0.00,,,0.00,11.000000,,2013-03-14 09:01:00,
2013-03-14 03:12:00,50.0,25.0,-100.00,NE,34,2.0,15.0,37,0.00,,,0.00,11.000000,,2013-03-14 09:12:00,
2013-03-14 03:22:00,50.0,25.0,-100.00,NE,34,2.0,15.0,37,0.00,,,0.00,11.000000,,2013-03-14 09:22:00,
2013-03-14 03:32:00,50.0,25.0,-100.00,NE,34,2.0,15.0,37,0.00,,,0.00,11.000000,,2013-03-14 09:32:00,
2013-03-14 04:02:00,48.0,24.0,-100.00,NW,304,3.0,8.0,38,0.00,,,0.00,6.000000,,2013-03-14 10:02:00,
2013-03-14 04:12:00,48.0,24.0,-100.00,NW,304,3.0,8.0,38,0.00,,,0.00,6.000000,,2013-03-14 10:12:00,
2013-03-14 04:22:00,48.0,24.0,-100.00,NW,304,3.0,8.0,38,0.00,,,0.00,6.000000,,2013-03-14 10:22:00,
2013-03-14 04:32:00,48.0,24.0,-100.00,NW,304,3.0,8.0,38,0.00,,,0.00,6.000000,,2013-03-14 10:32:00,
2013-03-14 05:02:00,48.0,25.0,-100.00,WNW,296,2.0,5.0,40,0.00,,,0.00,6.000000,,2013-03-14 11:02:00,
2013-03-14 05:12:00,48.0,25.0,-100.00,WNW,296,2.0,5.0,40,0.00,,,0.00,6.000000,,2013-03-14 11:12:00,
2013-03-14 05:22:00,48.0,25.0,-100.00,WNW,296,2.0,5.0,40,0.00,,,0.00,6.000000,,2013-03-14 11:22:00,
2013-03-14 05:33:00,48.0,25.0,-100.00,WNW,296,2.0,5.0,40,0.00,,,0.00,6.000000,,2013-03-14 11:33:00,
2013-03-14 06:02:00,47.0,24.0,-100.00,West,274,4.0,4.0,40,0.00,,,0.00,12.000000,,2013-03-14 12:02:00,
2013-03-14 06:12:00,47.0,24.0,-100.00,West,274,4.0,4.0,40,0.00,,,0.00,12.000000,,2013-03-14 12:12:00,
2013-03-14 06:22:00,47.0,24.0,-100.00,West,274,4.0,4.0,40,0.00,,,0.00,12.000000,,2013-03-14 12:22:00,
2013-03-14 06:33:00,47.0,24.0,-100.00,West,274,4.0,4.0,40,0.00,,,0.00,12.000000,,2013-03-14 12:33:00,
2013-03-14 07:02:00,50.0,25.0,-100.00,WNW,292,4.0,9.0,37,0.00,,,0.00,27.000000,,2013-03-14 13:02:00,
2013-03-14 07:12:00,50.0,25.0,-100.00,WNW,292,4.0,9.0,37,0.00,,,0.00,27.000000,,2013-03-14 13:12:00,
2013-03-14 07:22:00,50.0,25.0,-100.00,WNW,292,4.0,9.0,37,0.00,,,0.00,27.000000,,2013-03-14 13:22:00,
2013-03-14 07:32:00,50.0,25.0,-100.00,WNW,292,4.0,9.0,37,0.00,,,0.00,27.000000,,2013-03-14 13:32:00,
2013-03-14 08:02:00,48.0,24.0,-100.00,WSW,256,4.0,7.0,38,0.00,,,0.00,18.000000,,2013-03-14 14:02:00,
2013-03-14 08:12:00,48.0,24.0,-100.00,WSW,256,4.0,7.0,38,0.00,,,0.00,18.000000,,2013-03-14 14:12:00,
2013-03-14 08:22:00,48.0,24.0,-100.00,WSW,256,4.0,7.0,38,0.00,,,0.00,18.000000,,2013-03-14 14:22:00,
2013-03-14 08:32:00,48.0,24.0,-100.00,WSW,256,4.0,7.0,38,0.00,,,0.00,18.000000,,2013-03-14 14:32:00,
2013-03-14 09:02:00,48.0,25.0,-100.00,WSW,251,4.0,11.0,40,0.00,,,0.00,54.000000,,2013-03-14 15:02:00,
2013-03-14 09:12:00,48.0,25.0,-100.00,WSW,251,4.0,11.0,40,0.00,,,0.00,54.000000,,2013-03-14 15:12:00,
2013-03-14 09:22:00,48.0,25.0,-100.00,WSW,251,4.0,11.0,40,0.00,,,0.00,54.000000,,2013-03-14 15:22:00,
2013-03-14 09:32:00,48.0,25.0,-100.00,WSW,251,4.0,11.0,40,0.00,,,0.00,54.000000,,2013-03-14 15:32:00,
2013-03-14 09:52:00,51.0,25.0,-100.00,WSW,242,6.0,13.0,36,0.00,,,0.00,244.000000,,2013-03-14 15:52:00,
2013-03-14 10:03:00,51.0,25.0,-100.00,WSW,242,6.0,13.0,36,0.00,,,0.00,244.000000,,2013-03-14 16:03:00,
2013-03-14 10:12:00,51.0,25.0,-100.00,WSW,242,6.0,13.0,36,0.00,,,0.00,244.000000,,2013-03-14 16:12:00,
2013-03-14 10:22:00,51.0,25.0,-100.00,WSW,242,6.0,13.0,36,0.00,,,0.00,244.000000,,2013-03-14 16:22:00,
2013-03-14 10:32:00,51.0,25.0,-100.00,WSW,242,6.0,13.0,36,0.00,,,0.00,244.000000,,2013-03-14 16:32:00,
2013-03-14 10:52:00,57.0,27.0,-100.00,WSW,246,6.0,16.0,31,0.00,,,0.00,454.000000,,2013-03-14 16:52:00,
2013-03-14 11:02:00,57.0,27.0,-100.00,WSW,246,6.0,16.0,31,0.00,,,0.00,454.000000,,2013-03-14 17:02:00,
2013-03-14 11:12:00,57.0,27.0,-100.00,WSW,246,6.0,16.0,31,0.00,,,0.00,454.000000,,2013-03-14 17:12:00,
2013-03-14 11:23:00,57.0,27.0,-100.00,WSW,246,6.0,16.0,31,0.00,,,0.00,454.000000,,2013-03-14 17:23:00,
2013-03-14 11:32:00,57.0,27.0,-100.00,WSW,246,6.0,16.0,31,0.00,,,0.00,454.000000,,2013-03-14 17:32:00,
2013-03-14 11:53:00,59.0,24.0,-100.00,SW,236,6.0,15.0,26,0.00,,,0.00,370.000000,,2013-03-14 17:53:00,
2013-03-14 12:03:00,59.0,24.0,-100.00,SW,236,6.0,15.0,26,0.00,,,0.00,370.000000,,2013-03-14 18:03:00,
2013-03-14 12:12:00,59.0,24.0,-100.00,SW,236,6.0,15.0,26,0.00,,,0.00,370.000000,,2013-03-14 18:12:00,
2013-03-14 12:22:00,59.0,24.0,-100.00,SW,236,6.0,15.0,26,0.00,,,0.00,370.000000,,2013-03-14 18:22:00,
2013-03-14 12:32:00,59.0,24.0,-100.00,SW,236,6.0,15.0,26,0.00,,,0.00,370.000000,,2013-03-14 18:32:00,
2013-03-14 12:52:00,60.0,23.0,-100.00,West,262,8.0,21.0,24,0.00,,,0.00,216.000000,,2013-03-14 18:52:00,
2013-03-14 13:03:00,60.0,23.0,-100.00,West,262,8.0,21.0,24,0.00,,,0.00,216.000000,,2013-03-14 19:03:00,
2013-03-14 13:12:00,60.0,23.0,-100.00,West,262,8.0,21.0,24,0.00,,,0.00,216.000000,,2013-03-14 19:12:00,
2013-03-14 13:23:00,60.0,23.0,-100.00,West,262,8.0,21.0,24,0.00,,,0.00,216.000000,,2013-03-14 19:23:00,
2013-03-14 13:32:00,60.0,23.0,-100.00,West,262,8.0,21.0,24,0.00,,,0.00,216.000000,,2013-03-14 19:32:00,
2013-03-14 15:02:00,62.0,22.0,-100.00,WSW,247,11.0,24.0,21,-99.99,,,0.00,50.000000,,2013-03-14 21:02:00,
2013-03-14 15:12:00,62.0,22.0,-100.00,WSW,247,11.0,24.0,21,-99.99,,,0.00,50.000000,,2013-03-14 21:12:00,
2013-03-14 15:22:00,62.0,22.0,-100.00,WSW,247,11.0,24.0,21,-99.99,,,0.00,50.000000,,2013-03-14 21:22:00,
2013-03-14 15:32:00,62.0,22.0,-100.00,WSW,247,11.0,24.0,21,-99.99,,,0.00,50.000000,,2013-03-14 21:32:00,
2013-03-14 16:03:00,64.0,22.0,-100.00,East,87,6.0,22.0,20,0.00,,,0.00,30.000000,,2013-03-14 22:03:00,
2013-03-14 16:13:00,64.0,22.0,-100.00,East,87,6.0,22.0,20,0.00,,,0.00,30.000000,,2013-03-14 22:13:00,
2013-03-14 16:23:00,64.0,22.0,-100.00,East,87,6.0,22.0,20,0.00,,,0.00,30.000000,,2013-03-14 22:23:00,
2013-03-14 16:33:00,64.0,22.0,-100.00,East,87,6.0,22.0,20,0.00,,,0.00,30.000000,,2013-03-14 22:33:00,
2013-03-14 17:02:00,66.0,23.0,-100.00,WSW,253,8.0,24.0,19,0.00,,,0.00,7.000000,,2013-03-14 23:02:00,
2013-03-14 17:12:00,66.0,23.0,-100.00,WSW,253,8.0,24.0,19,0.00,,,0.00,7.000000,,2013-03-14 23:12:00,
2013-03-14 17:22:00,66.0,23.0,-100.00,WSW,253,8.0,24.0,19,0.00,,,0.00,7.000000,,2013-03-14 23:22:00,
2013-03-14 17:33:00,66.0,23.0,-100.00,WSW,253,8.0,24.0,19,0.00,,,0.00,7.000000,,2013-03-14 23:33:00,
2013-03-14 18:02:00,63.0,22.0,-100.00,West,278,5.0,22.0,21,0.00,,,-99.99,3.000000,,2013-03-15 00:02:00,
2013-03-14 18:12:00,63.0,22.0,-100.00,West,278,5.0,22.0,21,0.00,,,-99.99,3.000000,,2013-03-15 00:12:00,
2013-03-14 18:22:00,63.0,22.0,-100.00,West,278,5.0,22.0,21,0.00,,,-99.99,3.000000,,2013-03-15 00:22:00,
2013-03-14 18:32:00,63.0,22.0,-100.00,West,278,5.0,22.0,21,0.00,,,-99.99,3.000000,,2013-03-15 00:32:00,
2013-03-14 19:02:00,60.0,21.0,-100.00,WNW,287,3.0,12.0,22,0.00,,,0.00,0.000000,,2013-03-15 01:02:00,
2013-03-14 19:12:00,60.0,21.0,-100.00,WNW,287,3.0,12.0,22,0.00,,,0.00,0.000000,,2013-03-15 01:12:00,
2013-03-14 19:22:00,60.0,21.0,-100.00,WNW,287,3.0,12.0,22,0.00,,,0.00,0.000000,,2013-03-15 01:22:00,
2013-03-14 19:32:00,60.0,21.0,-100.00,WNW,287,3.0,12.0,22,0.00,,,0.00,0.000000,,2013-03-15 01:32:00,
2013-03-14 20:02:00,59.0,23.0,-100.00,WNW,284,3.0,9.0,25,0.00,,,0.00,0.000000,,2013-03-15 02:02:00,
2013-03-14 20:12:00,59.0,23.0,-100.00,WNW,284,3.0,9.0,25,0.00,,,0.00,0.000000,,2013-03-15 02:12:00,
2013-03-14 20:22:00,59.0,23.0,-100.00,WNW,284,3.0,9.0,25,0.00,,,0.00,0.000000,,2013-03-15 02:22:00,
2013-03-14 20:32:00,59.0,23.0,-100.00,WNW,284,3.0,9.0,25,0.00,,,0.00,0.000000,,2013-03-15 02:32:00,
2013-03-14 21:02:00,59.0,23.0,-100.00,NW,309,5.0,9.0,25,0.00,,,0.00,0.000000,,2013-03-15 03:02:00,
2013-03-14 21:12:00,59.0,23.0,-100.00,NW,309,5.0,9.0,25,0.00,,,0.00,0.000000,,2013-03-15 03:12:00,
2013-03-14 21:22:00,59.0,23.0,-100.00,NW,309,5.0,9.0,25,0.00,,,0.00,0.000000,,2013-03-15 03:22:00,
2013-03-14 21:33:00,59.0,23.0,-100.00,NW,309,5.0,9.0,25,0.00,,,0.00,0.000000,,2013-03-15 03:33:00,
2013-03-14 22:03:00,58.0,22.0,-100.00,NW,309,5.0,11.0,25,0.00,,,0.00,2.000000,,2013-03-15 04:03:00,
2013-03-14 22:12:00,58.0,22.0,-100.00,NW,309,5.0,11.0,25,0.00,,,0.00,2.000000,,2013-03-15 04:12:00,
2013-03-14 22:23:00,58.0,22.0,-100.00,NW,309,5.0,11.0,25,0.00,,,0.00,2.000000,,2013-03-15 04:23:00,
2013-03-14 22:32:00,58.0,22.0,-100.00,NW,309,5.0,11.0,25,0.00,,,0.00,2.000000,,2013-03-15 04:32:00,
2013-03-14 23:02:00,57.0,23.0,-100.00,NNW,335,5.0,15.0,27,0.00,,,0.00,3.000000,,2013-03-15 05:02:00,
2013-03-14 23:12:00,57.0,23.0,-100.00,NNW,335,5.0,15.0,27,0.00,,,0.00,3.000000,,2013-03-15 05:12:00,
2013-03-14 23:22:00,57.0,23.0,-100.00,NNW,335,5.0,15.0,27,0.00,,,0.00,3.000000,,2013-03-15 05:22:00,
2013-03-14 23:32:00,57.0,23.0,-100.00,NNW,335,5.0,15.0,27,0.00,,,0.00,3.000000,,2013-03-15 05:32:00,
2013-03-14 23:52:00,55.0,21.0,-100.00,NW,320,6.0,12.0,26,0.00,,,0.00,4.000000,,2013-03-15 05:52:00,